Chengwatana, Minnesota
Current Conditions -  °F | °C
As of 6:35 PM on Monday 24 Nov 2014 (Local Time) from KROS Reporting Station
Overcast Overcast  
Wind Chill:   Ceiling: 2600
Heat Index: 19°   Visibility: 10mi
Dew Point: 11°   Wind: 13mph
Humidity: 71%   Direction: 320°NW
Pressure: 29.73"   Gusts: 18mph
Location:  45.8356°N, 92.9649°W
Report Text: KROS 250035Z AUTO 32011G16KT 10SM BKN026 BKN043 OVC090 M07/M12 A2973 RMK AO2 T10711116
Loading
Personal Weather Stations






























Interactive Weather Map New forecast layout! Learn more

10-Day Weather Forecast

Advertisements
Track Severe Weather on mobile